Time;durP1;ratioP1;P1;durP2;ratioP2;P2;SDS_P1;SDS_P2;PMS_P1;PMS_P2;Temp;Humidity;BMP_temperature;BMP_pressure;BME280_temperature;BME280_humidity;BME280_pressure;Samples;Min_cycle;Max_cycle;Signal;HPM_P1;HPM_P2
2023/12/08 00:01:18;;;;;;;14.60;12.07;;;1.80;99.90;;;;;;5038432;28;20489;-67
2023/12/08 00:03:44;;;;;;;14.93;11.80;;;1.80;99.90;;;;;;5044846;28;20213;-67
2023/12/08 00:06:10;;;;;;;13.40;10.77;;;1.90;99.90;;;;;;5042389;28;20200;-68
2023/12/08 00:08:37;;;;;;;16.57;11.43;;;1.90;99.90;;;;;;5037213;28;20590;-68
2023/12/08 00:11:03;;;;;;;12.70;10.97;;;2.00;99.90;;;;;;5040556;28;20924;-68
2023/12/08 00:13:29;;;;;;;15.43;12.17;;;2.10;99.90;;;;;;5033299;28;20496;-68
2023/12/08 00:15:54;;;;;;;15.80;11.60;;;2.10;99.90;;;;;;5041547;28;20460;-68
2023/12/08 00:18:21;;;;;;;16.67;12.03;;;2.20;99.90;;;;;;5013262;28;20637;-68
2023/12/08 00:20:47;;;;;;;11.93;9.97;;;2.20;99.90;;;;;;5013572;28;20174;-68
2023/12/08 00:23:12;;;;;;;17.10;11.73;;;2.20;99.90;;;;;;5039494;28;20435;-67
2023/12/08 00:25:38;;;;;;;12.33;10.57;;;2.20;99.90;;;;;;5029828;28;20198;-68
2023/12/08 00:28:03;;;;;;;13.50;11.10;;;2.30;99.90;;;;;;5034859;28;20181;-68
2023/12/08 00:30:29;;;;;;;15.87;12.20;;;2.30;99.90;;;;;;5031575;28;20188;-67
2023/12/08 00:32:55;;;;;;;13.37;10.60;;;2.10;99.90;;;;;;5041073;28;20572;-67
2023/12/08 00:35:22;;;;;;;22.07;13.23;;;2.10;99.90;;;;;;5052967;28;20192;-68
2023/12/08 00:37:47;;;;;;;15.37;12.10;;;2.00;99.90;;;;;;5037316;28;20179;-67
2023/12/08 00:40:15;;;;;;;14.87;10.83;;;2.10;99.90;;;;;;5038390;28;20785;-68
2023/12/08 00:42:40;;;;;;;13.60;11.17;;;2.20;99.90;;;;;;5039716;28;20178;-68
2023/12/08 00:45:06;;;;;;;14.70;11.20;;;2.20;99.90;;;;;;5044433;28;20460;-67
2023/12/08 00:47:31;;;;;;;11.27;9.97;;;2.20;99.90;;;;;;5044335;28;20239;-67
2023/12/08 00:49:57;;;;;;;15.10;10.67;;;2.00;99.90;;;;;;5034738;28;20647;-68
2023/12/08 00:52:23;;;;;;;12.03;10.10;;;1.90;99.90;;;;;;5031045;28;20181;-68
2023/12/08 00:54:48;;;;;;;11.87;10.47;;;1.90;99.90;;;;;;5024036;28;20203;-68
2023/12/08 00:57:14;;;;;;;12.33;9.03;;;1.90;99.90;;;;;;5030747;28;20213;-68
2023/12/08 00:59:40;;;;;;;13.23;9.90;;;2.00;99.90;;;;;;5024989;28;20233;-68
2023/12/08 01:02:06;;;;;;;11.13;9.90;;;2.10;99.90;;;;;;5039795;28;20436;-67
2023/12/08 01:04:31;;;;;;;12.27;9.67;;;2.20;99.90;;;;;;5042555;28;20205;-68
2023/12/08 01:06:57;;;;;;;9.73;8.73;;;2.30;99.90;;;;;;5032168;28;20178;-68
2023/12/08 01:09:22;;;;;;;13.03;9.23;;;2.40;99.90;;;;;;5038225;28;20182;-68
2023/12/08 01:11:48;;;;;;;14.23;10.53;;;2.40;99.90;;;;;;5029430;28;20196;-68
2023/12/08 01:14:13;;;;;;;12.10;9.77;;;2.50;99.90;;;;;;5041890;28;20297;-68
2023/12/08 01:16:42;;;;;;;12.67;9.90;;;2.60;99.90;;;;;;5042837;28;20533;-68
2023/12/08 01:19:09;;;;;;;9.60;8.20;;;2.60;99.90;;;;;;5032269;28;20542;-67
2023/12/08 01:21:38;;;;;;;11.73;8.13;;;2.50;99.90;;;;;;5030008;28;20465;-67
2023/12/08 01:24:05;;;;;;;8.10;7.30;;;2.30;99.90;;;;;;5033868;28;20977;-68
2023/12/08 01:26:30;;;;;;;7.53;5.80;;;2.30;99.90;;;;;;5041963;28;20482;-68
2023/12/08 01:28:56;;;;;;;7.73;5.93;;;2.30;99.90;;;;;;5031295;28;20519;-67
2023/12/08 01:31:21;;;;;;;8.90;6.43;;;2.30;99.90;;;;;;5038344;28;20197;-67
2023/12/08 01:33:47;;;;;;;7.50;6.50;;;2.40;99.90;;;;;;5039569;28;20663;-67
2023/12/08 01:36:13;;;;;;;9.17;7.20;;;2.40;99.90;;;;;;5031631;28;20205;-67
2023/12/08 01:38:38;;;;;;;7.60;6.70;;;2.40;99.90;;;;;;5036821;28;20177;-68
2023/12/08 01:41:04;;;;;;;8.33;6.80;;;2.40;99.90;;;;;;5043360;28;20515;-68
2023/12/08 01:43:29;;;;;;;9.30;6.93;;;2.40;99.90;;;;;;5043658;28;20647;-67
2023/12/08 01:45:57;;;;;;;9.10;6.23;;;2.40;99.90;;;;;;5031111;28;20190;-67
2023/12/08 01:48:24;;;;;;;7.43;6.70;;;2.40;99.90;;;;;;5051586;28;20197;-67
2023/12/08 01:50:50;;;;;;;7.03;6.33;;;2.40;99.90;;;;;;5041321;28;20824;-68
2023/12/08 01:53:15;;;;;;;7.50;6.10;;;2.40;99.90;;;;;;5035162;28;20455;-67
2023/12/08 01:55:41;;;;;;;8.77;6.20;;;2.40;99.90;;;;;;5036416;28;20185;-68
2023/12/08 01:58:07;;;;;;;6.87;5.90;;;2.50;99.90;;;;;;5039720;28;20182;-67
2023/12/08 02:00:33;;;;;;;8.73;6.27;;;2.50;99.90;;;;;;5036349;28;20200;-67
2023/12/08 02:02:59;;;;;;;6.87;5.83;;;2.50;99.90;;;;;;5038166;28;20520;-67
2023/12/08 02:05:26;;;;;;;6.93;5.10;;;2.50;99.90;;;;;;5039554;28;20232;-68
2023/12/08 02:07:53;;;;;;;6.37;5.77;;;2.50;99.90;;;;;;5051412;28;20424;-68
2023/12/08 02:10:19;;;;;;;6.43;5.73;;;2.60;99.90;;;;;;5044751;28;20522;-67
2023/12/08 02:12:45;;;;;;;7.67;6.30;;;2.60;99.90;;;;;;5035983;28;20838;-67
2023/12/08 02:15:12;;;;;;;7.17;5.70;;;2.70;99.90;;;;;;5039011;28;20193;-67
2023/12/08 02:17:38;;;;;;;5.87;5.10;;;2.70;99.90;;;;;;5043258;28;20481;-68
2023/12/08 02:20:13;;;;;;;7.23;6.50;;;2.80;99.90;;;;;;5038858;28;20428;-68
2023/12/08 02:22:39;;;;;;;6.63;5.73;;;2.80;99.90;;;;;;5027455;28;20420;-68
2023/12/08 02:25:05;;;;;;;8.50;6.43;;;2.70;99.90;;;;;;5032177;28;20464;-68
2023/12/08 02:27:30;;;;;;;7.60;6.30;;;2.70;99.90;;;;;;5038901;28;20177;-68
2023/12/08 02:29:56;;;;;;;7.97;5.87;;;2.80;99.90;;;;;;5037302;28;20192;-68
2023/12/08 02:32:38;;;;;;;6.70;5.90;;;2.80;99.90;;;;;;5037437;28;20192;-66
2023/12/08 02:35:07;;;;;;;7.37;6.67;;;2.80;99.90;;;;;;5030983;28;20675;-67
2023/12/08 02:37:46;;;;;;;7.70;5.87;;;2.80;99.90;;;;;;5037814;28;20419;-67
2023/12/08 02:40:12;;;;;;;6.57;5.97;;;2.80;99.90;;;;;;5031222;28;20417;-68
2023/12/08 02:42:38;;;;;;;8.90;7.87;;;2.80;99.90;;;;;;5029946;28;20412;-68
2023/12/08 02:45:06;;;;;;;8.20;6.13;;;2.80;99.90;;;;;;5041579;28;20443;-68
2023/12/08 02:47:32;;;;;;;8.20;6.33;;;2.90;99.90;;;;;;5034983;28;20181;-67
2023/12/08 02:49:58;;;;;;;7.77;6.60;;;2.80;99.90;;;;;;5029570;28;20784;-67
2023/12/08 02:52:23;;;;;;;6.97;5.67;;;2.90;99.90;;;;;;5038919;28;20690;-68
2023/12/08 02:54:49;;;;;;;8.27;7.00;;;2.80;99.90;;;;;;5034207;28;20241;-68
2023/12/08 02:57:14;;;;;;;8.43;6.73;;;2.70;99.90;;;;;;5045403;28;20178;-67
2023/12/08 02:59:40;;;;;;;8.20;7.40;;;2.60;99.90;;;;;;5046243;28;20177;-68
2023/12/08 03:02:05;;;;;;;7.97;7.03;;;2.60;99.90;;;;;;5048376;28;20209;-67
2023/12/08 03:04:31;;;;;;;7.70;6.03;;;2.60;99.90;;;;;;5041912;28;20222;-67
2023/12/08 03:06:56;;;;;;;9.00;6.80;;;2.60;99.90;;;;;;5042756;28;20182;-67
2023/12/08 03:09:22;;;;;;;8.77;7.20;;;2.70;99.90;;;;;;5054614;28;20235;-67
2023/12/08 03:11:47;;;;;;;7.80;7.00;;;2.70;99.90;;;;;;5043958;28;20225;-68
2023/12/08 03:14:13;;;;;;;7.37;6.30;;;2.80;99.90;;;;;;5041132;28;20755;-68
2023/12/08 03:16:38;;;;;;;7.20;5.43;;;2.80;99.90;;;;;;5037604;28;20170;-69
2023/12/08 03:19:04;;;;;;;6.70;6.00;;;2.80;99.90;;;;;;5043690;28;20182;-67
2023/12/08 03:21:29;;;;;;;7.80;6.27;;;2.70;99.90;;;;;;5041155;28;20178;-68
2023/12/08 03:23:55;;;;;;;7.97;6.40;;;2.60;99.90;;;;;;5034127;28;20255;-67
2023/12/08 03:26:21;;;;;;;9.33;6.40;;;2.50;99.90;;;;;;5042743;28;20187;-67
2023/12/08 03:28:46;;;;;;;6.93;6.10;;;2.40;99.90;;;;;;5043772;28;20588;-68
2023/12/08 03:31:22;;;;;;;7.40;6.00;;;2.30;99.90;;;;;;5032372;28;20273;-68
2023/12/08 03:33:47;;;;;;;9.83;7.13;;;2.30;99.90;;;;;;5036275;28;20206;-67
2023/12/08 03:36:13;;;;;;;8.90;7.07;;;2.30;99.90;;;;;;5037466;28;20441;-68
2023/12/08 03:38:38;;;;;;;6.60;5.90;;;2.40;99.90;;;;;;5045429;28;20580;-68
2023/12/08 03:41:04;;;;;;;9.23;6.60;;;2.50;99.90;;;;;;5035426;28;20170;-68
2023/12/08 03:43:29;;;;;;;5.57;4.97;;;2.60;99.90;;;;;;5039945;28;20217;-68
2023/12/08 03:45:55;;;;;;;7.03;6.33;;;2.70;99.90;;;;;;5048824;28;20184;-67
2023/12/08 03:48:20;;;;;;;6.90;5.80;;;2.70;99.90;;;;;;5034191;28;20592;-67
2023/12/08 03:50:46;;;;;;;8.23;5.63;;;2.70;99.90;;;;;;5041212;28;20717;-66
2023/12/08 03:53:11;;;;;;;8.27;6.30;;;2.70;99.90;;;;;;5041183;28;20209;-67
2023/12/08 03:55:37;;;;;;;7.83;6.73;;;2.70;99.90;;;;;;5035797;28;20201;-66
2023/12/08 03:58:02;;;;;;;10.10;7.20;;;2.70;99.90;;;;;;5040816;28;20217;-67
2023/12/08 04:00:28;;;;;;;6.93;6.27;;;2.70;99.90;;;;;;5033444;28;20181;-67
2023/12/08 04:02:53;;;;;;;8.73;6.97;;;2.80;99.90;;;;;;5033439;28;20186;-67
2023/12/08 04:05:19;;;;;;;7.57;6.80;;;2.90;99.90;;;;;;5041233;28;20210;-67
2023/12/08 04:07:44;;;;;;;8.20;6.63;;;2.90;99.90;;;;;;5040579;28;20194;-67
2023/12/08 04:10:10;;;;;;;7.63;6.47;;;2.90;99.90;;;;;;5033739;28;20178;-67
2023/12/08 04:12:35;;;;;;;6.33;5.70;;;2.90;99.90;;;;;;5041556;28;20240;-67
2023/12/08 04:15:01;;;;;;;10.63;6.67;;;3.00;99.90;;;;;;5047098;28;20208;-67
2023/12/08 04:17:26;;;;;;;7.23;6.07;;;2.80;99.90;;;;;;5035176;28;20210;-67
2023/12/08 04:19:52;;;;;;;6.83;6.13;;;2.80;99.90;;;;;;5044078;28;20596;-66
2023/12/08 04:22:17;;;;;;;7.80;6.47;;;2.70;99.90;;;;;;5047275;28;20665;-67
2023/12/08 04:24:43;;;;;;;6.10;5.50;;;2.70;99.90;;;;;;5033217;28;20324;-68
2023/12/08 04:27:08;;;;;;;8.40;6.10;;;2.70;99.90;;;;;;5036678;28;20194;-68
2023/12/08 04:29:34;;;;;;;8.80;6.27;;;2.70;99.90;;;;;;5043333;28;20643;-67
2023/12/08 04:31:59;;;;;;;11.90;6.83;;;2.80;99.90;;;;;;5040357;28;20186;-68
2023/12/08 04:34:25;;;;;;;8.90;6.43;;;2.80;99.90;;;;;;5039323;28;20222;-68
2023/12/08 04:36:50;;;;;;;8.13;6.87;;;2.80;99.90;;;;;;5034138;28;20186;-68
2023/12/08 04:39:16;;;;;;;10.70;7.17;;;2.70;99.90;;;;;;5040461;28;20187;-68
2023/12/08 04:41:42;;;;;;;7.53;5.20;;;2.70;99.90;;;;;;5040082;28;20228;-68
2023/12/08 04:44:07;;;;;;;7.90;6.80;;;2.80;99.90;;;;;;5032832;28;20503;-68
2023/12/08 04:46:33;;;;;;;6.97;6.27;;;2.80;99.90;;;;;;5032042;28;20178;-68
2023/12/08 04:48:58;;;;;;;9.53;7.03;;;2.80;99.90;;;;;;5028160;28;20190;-69
2023/12/08 04:51:24;;;;;;;10.50;6.50;;;2.80;99.90;;;;;;5038220;28;20210;-69
2023/12/08 04:53:49;;;;;;;9.03;6.83;;;2.90;99.90;;;;;;5031394;28;20210;-68
2023/12/08 04:56:16;;;;;;;8.83;7.50;;;2.90;99.90;;;;;;5046711;28;20178;-68
2023/12/08 04:58:41;;;;;;;10.97;7.07;;;2.90;99.90;;;;;;5037338;28;20933;-68
2023/12/08 05:01:12;;;;;;;8.37;7.37;;;2.80;99.90;;;;;;5035047;28;20228;-68
2023/12/08 05:03:37;;;;;;;7.20;6.50;;;2.90;99.90;;;;;;5034849;28;20573;-68
2023/12/08 05:06:03;;;;;;;10.87;7.50;;;2.90;99.90;;;;;;5041096;28;20433;-68
2023/12/08 05:08:29;;;;;;;7.20;5.50;;;2.90;99.90;;;;;;5043073;28;20209;-66
2023/12/08 05:10:54;;;;;;;7.57;6.67;;;3.00;99.90;;;;;;5035405;28;20314;-65
2023/12/08 05:13:20;;;;;;;7.70;6.10;;;3.00;99.90;;;;;;5043030;28;20667;-65
2023/12/08 05:15:45;;;;;;;8.53;7.33;;;3.00;99.90;;;;;;5035304;28;20182;-66
2023/12/08 05:18:11;;;;;;;7.27;6.57;;;3.00;99.90;;;;;;5035556;28;20181;-65
2023/12/08 05:20:36;;;;;;;8.17;6.50;;;3.00;99.90;;;;;;5036495;28;20197;-66
2023/12/08 05:23:02;;;;;;;9.57;7.10;;;3.00;99.90;;;;;;5035815;28;20186;-66
2023/12/08 05:25:27;;;;;;;10.20;7.33;;;3.00;99.90;;;;;;5038277;28;20662;-66
2023/12/08 05:27:53;;;;;;;13.27;7.90;;;2.90;99.90;;;;;;5040018;28;20186;-66
2023/12/08 05:30:18;;;;;;;8.43;7.47;;;3.00;99.90;;;;;;5029776;28;20178;-66
2023/12/08 05:32:44;;;;;;;9.03;7.90;;;2.90;99.90;;;;;;5029613;28;20841;-66
2023/12/08 05:35:09;;;;;;;15.23;7.83;;;2.90;99.90;;;;;;5033193;28;20202;-66
2023/12/08 05:37:35;;;;;;;7.90;7.10;;;2.80;99.90;;;;;;5037509;28;20182;-66
2023/12/08 05:40:00;;;;;;;12.40;9.03;;;2.70;99.90;;;;;;5035218;28;20600;-66
2023/12/08 05:42:26;;;;;;;19.17;9.07;;;2.70;99.90;;;;;;5039443;28;20182;-66
2023/12/08 05:44:51;;;;;;;13.40;8.70;;;2.70;99.90;;;;;;5035227;28;20218;-66
2023/12/08 05:47:17;;;;;;;10.50;8.17;;;2.70;99.90;;;;;;5035884;28;20209;-65
2023/12/08 05:49:43;;;;;;;15.53;7.87;;;2.70;99.90;;;;;;5030726;28;20228;-66
2023/12/08 05:52:09;;;;;;;11.80;8.83;;;2.60;99.90;;;;;;5039938;28;20174;-65
2023/12/08 05:54:35;;;;;;;13.57;10.30;;;2.60;99.90;;;;;;5030620;28;20983;-65
2023/12/08 05:57:00;;;;;;;14.23;9.33;;;2.60;99.90;;;;;;5040367;28;20416;-66
2023/12/08 05:59:26;;;;;;;10.50;9.50;;;2.60;99.90;;;;;;5035917;28;20174;-66
2023/12/08 06:01:52;;;;;;;12.00;9.73;;;2.60;99.90;;;;;;5034064;28;20613;-65
2023/12/08 06:04:17;;;;;;;12.03;9.40;;;2.60;99.90;;;;;;5063037;22;20230;-70
2023/12/08 06:06:43;;;;;;;12.50;10.07;;;2.60;99.90;;;;;;5030554;28;20451;-70
2023/12/08 06:09:09;;;;;;;19.77;11.10;;;2.60;99.90;;;;;;5031711;28;20185;-70
2023/12/08 06:11:35;;;;;;;14.60;10.70;;;2.60;99.90;;;;;;5034585;28;20181;-70
2023/12/08 06:14:00;;;;;;;16.17;9.50;;;2.70;99.90;;;;;;5034830;28;20460;-70
2023/12/08 06:16:26;;;;;;;12.87;8.97;;;2.70;99.90;;;;;;5030403;28;20225;-70
2023/12/08 06:18:52;;;;;;;14.30;10.93;;;2.80;99.90;;;;;;5029935;28;20175;-70
2023/12/08 06:21:17;;;;;;;16.77;10.40;;;2.80;99.90;;;;;;5033118;28;20174;-70
2023/12/08 06:23:43;;;;;;;12.10;8.57;;;2.80;99.90;;;;;;5039696;28;20174;-70
2023/12/08 06:26:08;;;;;;;13.57;10.40;;;2.70;99.90;;;;;;5028841;28;20191;-70
2023/12/08 06:28:34;;;;;;;15.40;10.20;;;2.70;99.90;;;;;;5043301;28;20166;-70
2023/12/08 06:31:01;;;;;;;17.00;10.50;;;2.70;99.90;;;;;;5038472;28;20610;-71
2023/12/08 06:33:26;;;;;;;14.33;10.40;;;2.80;99.90;;;;;;5046918;28;20220;-71
2023/12/08 06:35:52;;;;;;;14.97;10.13;;;2.70;99.90;;;;;;5045020;28;20487;-71
2023/12/08 06:38:17;;;;;;;11.03;8.23;;;2.60;99.90;;;;;;5045610;28;20674;-71
2023/12/08 06:40:43;;;;;;;16.70;10.83;;;2.60;99.90;;;;;;5036423;28;20182;-71
2023/12/08 06:43:09;;;;;;;11.47;10.20;;;2.50;99.90;;;;;;5030301;28;20568;-71
2023/12/08 06:45:34;;;;;;;16.60;10.00;;;2.50;99.90;;;;;;5041008;28;20200;-71
2023/12/08 06:48:00;;;;;;;15.47;9.83;;;2.50;99.90;;;;;;5052116;28;20536;-71
2023/12/08 06:50:25;;;;;;;22.43;10.60;;;2.50;99.90;;;;;;5051207;28;20186;-71
2023/12/08 06:52:51;;;;;;;11.77;9.43;;;2.50;99.90;;;;;;5041756;28;20177;-69
2023/12/08 06:55:18;;;;;;;16.87;10.33;;;2.60;99.90;;;;;;5031926;28;20194;-69
2023/12/08 06:57:44;;;;;;;10.67;8.13;;;2.60;99.90;;;;;;5036463;28;20438;-69
2023/12/08 07:00:10;;;;;;;14.63;9.70;;;2.60;99.90;;;;;;5039503;28;20515;-69
2023/12/08 07:02:36;;;;;;;12.07;10.40;;;2.60;99.90;;;;;;5037198;28;20245;-69
2023/12/08 07:05:02;;;;;;;10.07;8.37;;;2.60;99.90;;;;;;5043897;28;20815;-69
2023/12/08 07:07:28;;;;;;;12.97;9.30;;;2.60;99.90;;;;;;5037257;28;20424;-69
2023/12/08 07:09:53;;;;;;;13.63;9.53;;;2.60;99.90;;;;;;5040800;28;20208;-69
2023/12/08 07:12:19;;;;;;;17.00;9.20;;;2.60;99.90;;;;;;5032998;28;20227;-69
2023/12/08 07:14:44;;;;;;;15.27;9.97;;;2.60;99.90;;;;;;5038575;28;20213;-69
2023/12/08 07:17:10;;;;;;;17.67;9.90;;;2.70;99.90;;;;;;5043076;28;20514;-70
2023/12/08 07:19:38;;;;;;;14.23;9.30;;;2.70;99.90;;;;;;5035500;28;20558;-70
2023/12/08 07:22:04;;;;;;;14.10;9.97;;;2.70;99.90;;;;;;5025604;28;20194;-71
2023/12/08 07:24:30;;;;;;;14.47;11.13;;;2.70;99.90;;;;;;5033981;28;20551;-70
2023/12/08 07:26:55;;;;;;;12.90;9.97;;;2.70;99.90;;;;;;5029600;28;20519;-70
2023/12/08 07:29:23;;;;;;;12.90;9.10;;;2.70;99.90;;;;;;5039345;28;20186;-70
2023/12/08 07:31:48;;;;;;;14.17;10.80;;;2.70;99.90;;;;;;5046719;28;20173;-70
2023/12/08 07:34:14;;;;;;;23.00;10.73;;;2.80;99.90;;;;;;5036293;28;20515;-70
2023/12/08 07:36:39;;;;;;;15.70;10.03;;;2.80;99.90;;;;;;5033003;28;20240;-70
2023/12/08 07:39:06;;;;;;;11.37;9.30;;;2.90;99.90;;;;;;5031504;28;20182;-72
2023/12/08 07:41:32;;;;;;;22.47;9.97;;;2.90;99.90;;;;;;5029347;28;20589;-73
2023/12/08 07:43:57;;;;;;;11.90;9.53;;;2.90;99.90;;;;;;5041491;28;20456;-72
2023/12/08 07:46:23;;;;;;;12.97;10.10;;;2.90;99.90;;;;;;5027924;28;20171;-71
2023/12/08 07:48:49;;;;;;;14.03;11.20;;;3.00;99.90;;;;;;5030304;28;20651;-73
2023/12/08 07:51:14;;;;;;;17.30;11.07;;;3.00;99.90;;;;;;5030893;28;20438;-73
2023/12/08 07:53:40;;;;;;;14.67;10.37;;;3.00;99.90;;;;;;5038494;28;20205;-73
2023/12/08 07:56:06;;;;;;;18.07;10.43;;;3.10;99.90;;;;;;5041144;28;20186;-75
2023/12/08 07:58:32;;;;;;;15.23;8.80;;;3.10;99.90;;;;;;5028813;28;20635;-74
2023/12/08 08:00:57;;;;;;;9.07;8.13;;;3.20;99.90;;;;;;5032281;28;20186;-74
2023/12/08 08:03:23;;;;;;;16.70;11.23;;;3.30;99.90;;;;;;5024942;28;20527;-75
2023/12/08 08:05:48;;;;;;;20.73;9.03;;;3.40;99.90;;;;;;5031631;28;20214;-74
2023/12/08 08:08:14;;;;;;;13.90;10.30;;;3.40;99.90;;;;;;5033828;28;20195;-73
2023/12/08 08:10:40;;;;;;;18.77;11.60;;;3.50;99.90;;;;;;5033866;28;20652;-76
2023/12/08 08:13:05;;;;;;;11.10;7.80;;;3.50;99.90;;;;;;5031218;28;20263;-75
2023/12/08 08:15:30;;;;;;;11.20;8.87;;;3.60;99.90;;;;;;5038706;28;20336;-74
2023/12/08 08:17:56;;;;;;;13.77;9.13;;;3.60;99.90;;;;;;5038874;28;20192;-74
2023/12/08 08:20:22;;;;;;;12.43;9.50;;;3.70;99.90;;;;;;5031513;28;20170;-74
2023/12/08 08:22:47;;;;;;;13.20;8.87;;;3.80;99.90;;;;;;5031751;28;20269;-74
2023/12/08 08:25:13;;;;;;;11.73;9.33;;;3.80;99.90;;;;;;5040085;28;20201;-74
2023/12/08 08:27:39;;;;;;;10.23;8.40;;;3.90;99.90;;;;;;5033966;28;20618;-74
2023/12/08 08:30:05;;;;;;;11.77;8.37;;;4.00;99.90;;;;;;5034273;28;20175;-73
2023/12/08 08:32:31;;;;;;;11.67;8.67;;;4.00;99.90;;;;;;5040641;28;20800;-74
2023/12/08 08:34:58;;;;;;;12.20;9.03;;;4.10;99.90;;;;;;5031173;28;20473;-74
2023/12/08 08:37:24;;;;;;;21.10;8.90;;;4.10;99.90;;;;;;5039816;28;20193;-74
2023/12/08 08:39:49;;;;;;;12.40;8.67;;;4.20;99.90;;;;;;5030993;28;20455;-74
2023/12/08 08:42:16;;;;;;;15.40;9.73;;;4.30;99.90;;;;;;5032189;28;20174;-73
2023/12/08 08:44:42;;;;;;;11.57;8.70;;;4.30;99.90;;;;;;5031740;28;20202;-74
2023/12/08 08:47:07;;;;;;;11.50;9.23;;;4.40;99.90;;;;;;5027066;28;20440;-75
2023/12/08 08:49:33;;;;;;;9.77;7.53;;;4.40;99.90;;;;;;5031711;28;20174;-73
2023/12/08 08:51:59;;;;;;;10.27;7.50;;;4.50;99.90;;;;;;5029269;28;20174;-71
2023/12/08 08:54:25;;;;;;;9.23;6.63;;;4.50;99.90;;;;;;5031284;28;20209;-75
2023/12/08 08:56:51;;;;;;;12.10;7.83;;;4.60;99.90;;;;;;5039193;28;20432;-74
2023/12/08 08:59:16;;;;;;;9.73;8.27;;;4.70;99.90;;;;;;5044548;28;20951;-75
2023/12/08 09:01:42;;;;;;;8.90;7.50;;;4.70;99.90;;;;;;5038354;28;20570;-74
2023/12/08 09:04:08;;;;;;;7.77;6.63;;;4.70;99.90;;;;;;5032346;28;20570;-74
2023/12/08 09:06:33;;;;;;;11.53;6.43;;;4.80;99.90;;;;;;5032066;28;20177;-74
2023/12/08 09:09:00;;;;;;;8.33;6.77;;;4.80;99.90;;;;;;5032446;28;20602;-74
2023/12/08 09:11:26;;;;;;;9.23;6.90;;;4.90;99.90;;;;;;5031525;28;20552;-74
2023/12/08 09:13:52;;;;;;;11.80;7.40;;;5.00;99.90;;;;;;5032290;28;20938;-73
2023/12/08 09:16:18;;;;;;;12.23;8.03;;;5.00;99.90;;;;;;5034993;28;20460;-73
2023/12/08 09:18:43;;;;;;;9.87;8.07;;;5.20;99.90;;;;;;5042484;28;20223;-73
2023/12/08 09:21:09;;;;;;;9.30;6.97;;;5.30;99.90;;;;;;5050146;28;20268;-73
2023/12/08 09:23:34;;;;;;;7.93;7.07;;;5.30;99.90;;;;;;5030796;28;20658;-73
2023/12/08 09:26:01;;;;;;;10.77;7.10;;;5.30;99.90;;;;;;5030542;28;20198;-71
2023/12/08 09:28:26;;;;;;;10.20;8.27;;;5.40;99.90;;;;;;5031402;28;20640;-71
2023/12/08 09:30:52;;;;;;;10.43;7.47;;;5.40;99.90;;;;;;5031568;28;20429;-71
2023/12/08 09:33:17;;;;;;;11.77;8.13;;;5.40;99.90;;;;;;5031941;28;20548;-71
2023/12/08 09:35:43;;;;;;;9.10;8.00;;;5.50;99.90;;;;;;5031682;28;20267;-71
2023/12/08 09:38:08;;;;;;;11.27;7.60;;;5.50;99.90;;;;;;5044987;28;20182;-72
2023/12/08 09:40:36;;;;;;;10.80;8.27;;;5.50;99.90;;;;;;5031381;28;20174;-72
2023/12/08 09:43:16;;;;;;;17.93;10.00;;;5.50;99.90;;;;;;5038419;28;20186;-72
2023/12/08 09:45:44;;;;;;;15.10;10.20;;;5.50;99.90;;;;;;5044601;28;20452;-72
2023/12/08 09:48:11;;;;;;;18.30;13.13;;;5.40;99.90;;;;;;5030595;28;20962;-72
2023/12/08 09:50:39;;;;;;;13.80;10.07;;;5.40;99.90;;;;;;5033826;28;20436;-72
2023/12/08 09:53:06;;;;;;;14.67;10.63;;;5.50;99.90;;;;;;5039702;28;20961;-72
2023/12/08 09:55:33;;;;;;;12.90;8.90;;;5.60;99.90;;;;;;5037668;28;20453;-72
2023/12/08 09:58:01;;;;;;;10.50;8.50;;;5.70;99.90;;;;;;5035812;28;20440;-71
2023/12/08 10:00:30;;;;;;;13.57;8.50;;;5.60;99.90;;;;;;5033663;28;20997;-72
2023/12/08 10:02:56;;;;;;;12.33;10.20;;;5.70;99.90;;;;;;5042318;28;20523;-72
2023/12/08 10:05:22;;;;;;;10.10;9.17;;;5.70;99.90;;;;;;5043060;28;20544;-72
2023/12/08 10:07:50;;;;;;;13.30;9.80;;;5.80;99.90;;;;;;5030943;28;20189;-72
2023/12/08 10:10:16;;;;;;;10.47;8.20;;;5.90;99.90;;;;;;5034725;28;20219;-71
2023/12/08 10:12:42;;;;;;;9.47;8.57;;;5.90;99.90;;;;;;5036736;28;20494;-72
2023/12/08 10:15:09;;;;;;;14.03;9.63;;;6.00;99.90;;;;;;5037027;28;20458;-72
2023/12/08 10:17:49;;;;;;;13.17;10.00;;;6.00;99.90;;;;;;5042609;28;20795;-72
2023/12/08 10:20:15;;;;;;;9.47;7.70;;;6.00;99.90;;;;;;5038985;28;20439;-72
2023/12/08 10:22:54;;;;;;;8.87;7.83;;;6.00;99.90;;;;;;5042817;28;20429;-72
2023/12/08 10:25:22;;;;;;;11.27;8.87;;;6.10;99.90;;;;;;5040369;28;20472;-72
2023/12/08 10:27:54;;;;;;;14.47;11.30;;;6.00;99.90;;;;;;5035047;28;20500;-72
2023/12/08 10:30:21;;;;;;;14.60;11.07;;;5.90;99.90;;;;;;5035344;28;20416;-72
2023/12/08 10:32:47;;;;;;;9.77;8.30;;;5.90;99.90;;;;;;5034992;28;20421;-72
2023/12/08 10:35:13;;;;;;;10.60;8.50;;;5.90;99.90;;;;;;5035081;28;20440;-72
2023/12/08 10:37:40;;;;;;;19.10;8.97;;;5.90;99.90;;;;;;5034608;28;20887;-72
2023/12/08 10:40:11;;;;;;;12.40;7.20;;;5.90;99.90;;;;;;5035590;28;20260;-72
2023/12/08 10:42:37;;;;;;;16.17;9.60;;;5.90;99.90;;;;;;5035697;28;20432;-72
2023/12/08 10:45:13;;;;;;;12.83;8.90;;;5.90;99.90;;;;;;5043428;28;20444;-71
2023/12/08 10:47:43;;;;;;;11.67;8.67;;;5.90;99.90;;;;;;5035024;28;20330;-71
2023/12/08 10:50:09;;;;;;;8.40;7.13;;;6.00;99.90;;;;;;5035122;28;20420;-71
2023/12/08 10:52:37;;;;;;;8.70;7.20;;;6.00;99.90;;;;;;5034567;28;20443;-71
2023/12/08 10:55:04;;;;;;;7.87;6.97;;;6.00;99.90;;;;;;5033675;28;21023;-71
2023/12/08 10:57:30;;;;;;;8.40;7.00;;;6.00;99.90;;;;;;5034458;28;20519;-71
2023/12/08 11:00:00;;;;;;;9.23;7.00;;;6.00;99.90;;;;;;5033473;28;21131;-71
2023/12/08 11:02:30;;;;;;;7.60;6.10;;;6.00;99.90;;;;;;5034415;28;20187;-71
2023/12/08 11:05:02;;;;;;;11.27;6.23;;;6.00;99.90;;;;;;5034827;28;20472;-71
2023/12/08 11:07:35;;;;;;;6.10;5.10;;;6.10;99.90;;;;;;5050581;28;20441;-71
2023/12/08 11:10:08;;;;;;;5.67;5.00;;;6.20;99.90;;;;;;5054638;28;21147;-71
2023/12/08 11:12:42;;;;;;;6.43;4.93;;;6.20;99.90;;;;;;5014969;28;20429;-68
2023/12/08 11:15:15;;;;;;;6.47;5.43;;;6.30;99.90;;;;;;5030402;28;20843;-68
2023/12/08 11:17:52;;;;;;;7.50;5.57;;;6.30;99.90;;;;;;5014789;28;20426;-68
2023/12/08 11:20:18;;;;;;;6.87;5.33;;;6.30;99.90;;;;;;5014821;28;20413;-68
2023/12/08 11:22:46;;;;;;;5.30;4.80;;;6.40;99.90;;;;;;5028480;28;20431;-68
2023/12/08 11:25:21;;;;;;;5.37;4.90;;;6.40;99.90;;;;;;5033170;28;20206;-69
2023/12/08 11:28:12;;;;;;;6.40;5.10;;;6.50;99.90;;;;;;5021534;28;20433;-67
2023/12/08 11:31:13;;;;;;;6.23;5.57;;;6.60;99.90;;;;;;5031912;28;20973;-69
2023/12/08 11:33:41;;;;;;;5.83;4.70;;;6.70;99.90;;;;;;5035770;28;20960;-69
2023/12/08 11:36:08;;;;;;;5.30;4.80;;;6.70;99.90;;;;;;5032529;28;20444;-71
2023/12/08 11:38:33;;;;;;;8.53;5.67;;;6.70;99.90;;;;;;5036792;28;20425;-68
2023/12/08 11:40:59;;;;;;;6.50;4.57;;;6.80;99.90;;;;;;5034211;28;20555;-69
2023/12/08 11:43:29;;;;;;;5.57;4.40;;;7.00;99.90;;;;;;5033995;28;20265;-68
2023/12/08 11:45:54;;;;;;;5.83;4.30;;;7.10;99.90;;;;;;5034003;28;20190;-68
2023/12/08 11:48:20;;;;;;;5.70;4.47;;;7.10;99.90;;;;;;5033904;28;20432;-69
2023/12/08 11:50:46;;;;;;;4.63;3.77;;;7.10;99.90;;;;;;5034640;28;20182;-68
2023/12/08 11:53:12;;;;;;;5.07;4.57;;;7.10;99.90;;;;;;5034122;28;20193;-69
2023/12/08 11:55:39;;;;;;;4.80;4.23;;;7.10;99.90;;;;;;5033807;28;20805;-70
2023/12/08 11:58:09;;;;;;;4.03;3.50;;;7.10;99.90;;;;;;5032347;28;20186;-69
2023/12/08 12:00:37;;;;;;;3.77;3.37;;;7.10;99.90;;;;;;5032892;28;20437;-68
2023/12/08 12:03:05;;;;;;;4.80;4.30;;;7.20;99.90;;;;;;5039178;28;20463;-69
2023/12/08 12:05:31;;;;;;;3.63;3.33;;;7.20;99.90;;;;;;5029729;28;20476;-69
2023/12/08 12:07:57;;;;;;;3.70;3.40;;;7.20;99.90;;;;;;5038584;28;20511;-69
2023/12/08 12:10:28;;;;;;;4.17;3.07;;;7.30;99.90;;;;;;5023373;28;20174;-69
2023/12/08 12:13:12;;;;;;;3.83;3.43;;;7.30;99.90;;;;;;5032660;28;20507;-69
2023/12/08 12:15:40;;;;;;;5.33;4.67;;;7.40;99.90;;;;;;5027613;28;20452;-70
2023/12/08 12:18:06;;;;;;;4.80;4.40;;;7.50;99.90;;;;;;5031409;28;20820;-69
2023/12/08 12:20:38;;;;;;;4.90;4.00;;;7.50;99.90;;;;;;5032341;28;20429;-69
2023/12/08 12:23:04;;;;;;;4.53;3.53;;;7.70;99.90;;;;;;5031034;28;20211;-69
2023/12/08 12:25:29;;;;;;;4.40;3.00;;;7.80;99.90;;;;;;5043889;28;20482;-69
2023/12/08 12:27:55;;;;;;;3.83;3.53;;;7.80;99.90;;;;;;5036600;28;20610;-69
2023/12/08 12:30:22;;;;;;;4.17;3.77;;;7.80;99.90;;;;;;5037487;28;20206;-69
2023/12/08 12:32:48;;;;;;;3.80;3.50;;;7.80;99.90;;;;;;5032230;28;20231;-70
2023/12/08 12:35:14;;;;;;;4.23;3.77;;;7.70;99.90;;;;;;5035318;28;20544;-70
2023/12/08 12:37:40;;;;;;;4.33;3.90;;;7.70;99.90;;;;;;5028258;28;20517;-71
2023/12/08 12:40:07;;;;;;;3.73;3.40;;;7.60;99.90;;;;;;5032979;28;20178;-70
2023/12/08 12:42:41;;;;;;;4.20;3.47;;;7.60;99.90;;;;;;5040883;28;20425;-70
2023/12/08 12:45:08;;;;;;;3.63;3.33;;;7.60;99.90;;;;;;5040692;28;20808;-71
2023/12/08 12:47:33;;;;;;;3.47;3.17;;;7.60;99.90;;;;;;5032295;28;20440;-71